sensor_id;sensor_type;location;lat;lon;timestamp;P1;durP1;ratioP1;P2;durP2;ratioP2
47966;SDS011;33733;52.456;13.620;2022-07-01T00:00:29;13.57;;;9.52;;
47966;SDS011;33733;52.456;13.620;2022-07-01T00:02:55;12.73;;;8.98;;
47966;SDS011;33733;52.456;13.620;2022-07-01T00:05:22;11.70;;;9.10;;
47966;SDS011;33733;52.456;13.620;2022-07-01T00:07:49;13.43;;;8.88;;
47966;SDS011;33733;52.456;13.620;2022-07-01T00:10:15;11.23;;;7.55;;
47966;SDS011;33733;52.456;13.620;2022-07-01T00:12:42;10.93;;;6.88;;
47966;SDS011;33733;52.456;13.620;2022-07-01T00:15:09;11.93;;;8.43;;
47966;SDS011;33733;52.456;13.620;2022-07-01T00:17:36;13.60;;;7.50;;
47966;SDS011;33733;52.456;13.620;2022-07-01T00:20:04;13.32;;;8.40;;
47966;SDS011;33733;52.456;13.620;2022-07-01T00:22:31;12.40;;;7.15;;
47966;SDS011;33733;52.456;13.620;2022-07-01T00:24:57;13.02;;;9.43;;
47966;SDS011;33733;52.456;13.620;2022-07-01T00:27:24;11.95;;;7.25;;
47966;SDS011;33733;52.456;13.620;2022-07-01T00:29:50;13.95;;;9.18;;
47966;SDS011;33733;52.456;13.620;2022-07-01T00:32:17;11.50;;;8.90;;
47966;SDS011;33733;52.456;13.620;2022-07-01T00:34:44;11.32;;;7.72;;
47966;SDS011;33733;52.456;13.620;2022-07-01T00:37:10;12.98;;;9.68;;
47966;SDS011;33733;52.456;13.620;2022-07-01T00:39:37;11.35;;;9.07;;
47966;SDS011;33733;52.456;13.620;2022-07-01T00:42:04;13.70;;;10.10;;
47966;SDS011;33733;52.456;13.620;2022-07-01T00:44:31;13.32;;;9.43;;
47966;SDS011;33733;52.456;13.620;2022-07-01T00:47:02;13.23;;;9.20;;
47966;SDS011;33733;52.456;13.620;2022-07-01T00:49:30;13.18;;;9.57;;
47966;SDS011;33733;52.456;13.620;2022-07-01T00:51:57;14.52;;;8.38;;
47966;SDS011;33733;52.456;13.620;2022-07-01T00:54:24;12.93;;;9.05;;
47966;SDS011;33733;52.456;13.620;2022-07-01T00:56:52;12.40;;;8.80;;
47966;SDS011;33733;52.456;13.620;2022-07-01T00:59:19;16.58;;;11.95;;
47966;SDS011;33733;52.456;13.620;2022-07-01T01:01:46;14.90;;;9.52;;
47966;SDS011;33733;52.456;13.620;2022-07-01T01:04:12;14.93;;;9.20;;
47966;SDS011;33733;52.456;13.620;2022-07-01T01:06:39;17.15;;;11.93;;
47966;SDS011;33733;52.456;13.620;2022-07-01T01:09:06;16.15;;;10.13;;
47966;SDS011;33733;52.456;13.620;2022-07-01T01:11:33;16.45;;;11.60;;
47966;SDS011;33733;52.456;13.620;2022-07-01T01:13:59;14.45;;;11.60;;
47966;SDS011;33733;52.456;13.620;2022-07-01T01:16:26;15.88;;;11.00;;
47966;SDS011;33733;52.456;13.620;2022-07-01T01:18:52;16.50;;;11.60;;
47966;SDS011;33733;52.456;13.620;2022-07-01T01:21:19;19.40;;;11.60;;
47966;SDS011;33733;52.456;13.620;2022-07-01T01:23:47;18.20;;;13.13;;
47966;SDS011;33733;52.456;13.620;2022-07-01T01:26:21;14.98;;;9.35;;
47966;SDS011;33733;52.456;13.620;2022-07-01T01:28:48;16.08;;;12.27;;
47966;SDS011;33733;52.456;13.620;2022-07-01T01:31:15;16.90;;;10.95;;
47966;SDS011;33733;52.456;13.620;2022-07-01T01:33:42;14.10;;;10.05;;
47966;SDS011;33733;52.456;13.620;2022-07-01T01:36:08;14.45;;;9.93;;
47966;SDS011;33733;52.456;13.620;2022-07-01T01:38:36;15.00;;;11.50;;
47966;SDS011;33733;52.456;13.620;2022-07-01T01:41:03;15.65;;;10.10;;
47966;SDS011;33733;52.456;13.620;2022-07-01T01:43:30;14.88;;;10.20;;
47966;SDS011;33733;52.456;13.620;2022-07-01T01:46:01;15.77;;;11.20;;
47966;SDS011;33733;52.456;13.620;2022-07-01T01:48:28;18.05;;;13.82;;
47966;SDS011;33733;52.456;13.620;2022-07-01T01:50:55;16.20;;;10.75;;
47966;SDS011;33733;52.456;13.620;2022-07-01T01:53:22;16.05;;;10.85;;
47966;SDS011;33733;52.456;13.620;2022-07-01T01:55:49;16.15;;;10.73;;
47966;SDS011;33733;52.456;13.620;2022-07-01T01:58:16;16.38;;;11.38;;
47966;SDS011;33733;52.456;13.620;2022-07-01T02:00:42;18.42;;;13.50;;
47966;SDS011;33733;52.456;13.620;2022-07-01T02:03:09;18.13;;;13.27;;
47966;SDS011;33733;52.456;13.620;2022-07-01T02:05:36;16.70;;;11.60;;
47966;SDS011;33733;52.456;13.620;2022-07-01T02:08:03;20.02;;;13.93;;
47966;SDS011;33733;52.456;13.620;2022-07-01T02:10:30;17.58;;;13.10;;
47966;SDS011;33733;52.456;13.620;2022-07-01T02:12:56;15.70;;;9.88;;
47966;SDS011;33733;52.456;13.620;2022-07-01T02:15:24;17.60;;;11.15;;
47966;SDS011;33733;52.456;13.620;2022-07-01T02:17:50;16.38;;;11.63;;
47966;SDS011;33733;52.456;13.620;2022-07-01T02:20:17;16.70;;;12.07;;
47966;SDS011;33733;52.456;13.620;2022-07-01T02:22:44;23.15;;;14.15;;
47966;SDS011;33733;52.456;13.620;2022-07-01T02:25:10;18.63;;;12.63;;
47966;SDS011;33733;52.456;13.620;2022-07-01T02:27:37;19.23;;;12.32;;
47966;SDS011;33733;52.456;13.620;2022-07-01T02:30:06;19.60;;;14.82;;
47966;SDS011;33733;52.456;13.620;2022-07-01T02:32:33;20.80;;;14.40;;
47966;SDS011;33733;52.456;13.620;2022-07-01T02:35:00;18.92;;;12.68;;
47966;SDS011;33733;52.456;13.620;2022-07-01T02:37:27;19.33;;;11.85;;
47966;SDS011;33733;52.456;13.620;2022-07-01T02:39:54;23.10;;;13.00;;
47966;SDS011;33733;52.456;13.620;2022-07-01T02:42:20;20.80;;;15.80;;
47966;SDS011;33733;52.456;13.620;2022-07-01T02:44:52;19.98;;;15.18;;
47966;SDS011;33733;52.456;13.620;2022-07-01T02:47:23;21.85;;;15.73;;
47966;SDS011;33733;52.456;13.620;2022-07-01T02:49:49;20.77;;;13.30;;
47966;SDS011;33733;52.456;13.620;2022-07-01T02:52:17;20.25;;;13.65;;
47966;SDS011;33733;52.456;13.620;2022-07-01T02:54:44;21.58;;;16.08;;
47966;SDS011;33733;52.456;13.620;2022-07-01T02:57:11;20.80;;;16.05;;
47966;SDS011;33733;52.456;13.620;2022-07-01T02:59:37;20.77;;;15.88;;
47966;SDS011;33733;52.456;13.620;2022-07-01T03:02:04;21.05;;;13.13;;
47966;SDS011;33733;52.456;13.620;2022-07-01T03:04:31;20.65;;;13.88;;
47966;SDS011;33733;52.456;13.620;2022-07-01T03:06:57;21.20;;;13.63;;
47966;SDS011;33733;52.456;13.620;2022-07-01T03:09:24;22.02;;;16.27;;
47966;SDS011;33733;52.456;13.620;2022-07-01T03:11:51;21.05;;;16.10;;
47966;SDS011;33733;52.456;13.620;2022-07-01T03:14:18;19.20;;;13.23;;
47966;SDS011;33733;52.456;13.620;2022-07-01T03:16:44;21.50;;;15.55;;
47966;SDS011;33733;52.456;13.620;2022-07-01T03:21:40;20.88;;;13.40;;
47966;SDS011;33733;52.456;13.620;2022-07-01T03:24:07;21.73;;;15.45;;
47966;SDS011;33733;52.456;13.620;2022-07-01T03:26:33;22.48;;;16.05;;
47966;SDS011;33733;52.456;13.620;2022-07-01T03:29:04;20.95;;;15.38;;
47966;SDS011;33733;52.456;13.620;2022-07-01T03:31:30;19.33;;;13.77;;
47966;SDS011;33733;52.456;13.620;2022-07-01T03:33:58;20.40;;;15.40;;
47966;SDS011;33733;52.456;13.620;2022-07-01T03:36:24;19.05;;;14.27;;
47966;SDS011;33733;52.456;13.620;2022-07-01T03:38:51;17.80;;;11.98;;
47966;SDS011;33733;52.456;13.620;2022-07-01T03:41:17;19.38;;;14.70;;
47966;SDS011;33733;52.456;13.620;2022-07-01T03:43:44;19.35;;;14.10;;
47966;SDS011;33733;52.456;13.620;2022-07-01T03:46:11;20.23;;;15.10;;
47966;SDS011;33733;52.456;13.620;2022-07-01T03:48:38;22.20;;;15.77;;
47966;SDS011;33733;52.456;13.620;2022-07-01T03:53:35;21.77;;;15.48;;
47966;SDS011;33733;52.456;13.620;2022-07-01T03:56:20;23.00;;;14.77;;
47966;SDS011;33733;52.456;13.620;2022-07-01T03:58:46;22.33;;;17.10;;
47966;SDS011;33733;52.456;13.620;2022-07-01T04:01:13;21.83;;;16.92;;
47966;SDS011;33733;52.456;13.620;2022-07-01T04:03:40;21.00;;;16.55;;
47966;SDS011;33733;52.456;13.620;2022-07-01T04:06:07;21.05;;;16.58;;
47966;SDS011;33733;52.456;13.620;2022-07-01T04:08:33;17.52;;;12.75;;
47966;SDS011;33733;52.456;13.620;2022-07-01T04:11:00;22.67;;;16.90;;
47966;SDS011;33733;52.456;13.620;2022-07-01T04:13:27;22.88;;;14.82;;
47966;SDS011;33733;52.456;13.620;2022-07-01T04:15:57;23.55;;;16.42;;
47966;SDS011;33733;52.456;13.620;2022-07-01T04:18:27;20.73;;;14.05;;
47966;SDS011;33733;52.456;13.620;2022-07-01T04:20:54;22.58;;;16.63;;
47966;SDS011;33733;52.456;13.620;2022-07-01T04:23:39;22.90;;;14.93;;
47966;SDS011;33733;52.456;13.620;2022-07-01T04:26:06;21.85;;;13.77;;
47966;SDS011;33733;52.456;13.620;2022-07-01T04:28:53;22.50;;;15.93;;
47966;SDS011;33733;52.456;13.620;2022-07-01T04:31:20;24.58;;;14.95;;
47966;SDS011;33733;52.456;13.620;2022-07-01T04:33:47;22.10;;;16.63;;
47966;SDS011;33733;52.456;13.620;2022-07-01T04:36:14;24.10;;;16.60;;
47966;SDS011;33733;52.456;13.620;2022-07-01T04:38:41;23.17;;;13.80;;
47966;SDS011;33733;52.456;13.620;2022-07-01T04:41:11;20.13;;;16.45;;
47966;SDS011;33733;52.456;13.620;2022-07-01T04:43:56;21.42;;;14.45;;
47966;SDS011;33733;52.456;13.620;2022-07-01T04:46:23;22.88;;;17.08;;
47966;SDS011;33733;52.456;13.620;2022-07-01T04:48:50;22.67;;;16.48;;
47966;SDS011;33733;52.456;13.620;2022-07-01T04:51:16;23.60;;;14.77;;
47966;SDS011;33733;52.456;13.620;2022-07-01T04:53:43;23.63;;;15.35;;
47966;SDS011;33733;52.456;13.620;2022-07-01T04:56:10;22.95;;;14.70;;
47966;SDS011;33733;52.456;13.620;2022-07-01T04:58:36;22.48;;;14.90;;
47966;SDS011;33733;52.456;13.620;2022-07-01T05:01:03;21.60;;;13.93;;
47966;SDS011;33733;52.456;13.620;2022-07-01T05:03:29;23.15;;;15.43;;
47966;SDS011;33733;52.456;13.620;2022-07-01T05:05:56;21.73;;;14.63;;
47966;SDS011;33733;52.456;13.620;2022-07-01T05:08:23;25.75;;;17.95;;
47966;SDS011;33733;52.456;13.620;2022-07-01T05:10:49;22.67;;;17.08;;
47966;SDS011;33733;52.456;13.620;2022-07-01T05:13:16;24.88;;;17.85;;
47966;SDS011;33733;52.456;13.620;2022-07-01T05:15:42;22.73;;;15.75;;
47966;SDS011;33733;52.456;13.620;2022-07-01T05:18:09;22.65;;;16.52;;
47966;SDS011;33733;52.456;13.620;2022-07-01T05:20:54;24.30;;;17.02;;
47966;SDS011;33733;52.456;13.620;2022-07-01T05:23:39;23.83;;;16.95;;
47966;SDS011;33733;52.456;13.620;2022-07-01T05:26:06;24.38;;;17.33;;
47966;SDS011;33733;52.456;13.620;2022-07-01T05:28:32;26.63;;;17.63;;
47966;SDS011;33733;52.456;13.620;2022-07-01T05:30:59;25.08;;;15.25;;
47966;SDS011;33733;52.456;13.620;2022-07-01T05:33:26;25.35;;;15.07;;
47966;SDS011;33733;52.456;13.620;2022-07-01T05:35:53;26.60;;;17.85;;
47966;SDS011;33733;52.456;13.620;2022-07-01T05:38:20;22.77;;;16.23;;
47966;SDS011;33733;52.456;13.620;2022-07-01T05:40:47;21.50;;;15.77;;
47966;SDS011;33733;52.456;13.620;2022-07-01T05:43:14;20.70;;;15.55;;
47966;SDS011;33733;52.456;13.620;2022-07-01T05:45:40;20.38;;;13.43;;
47966;SDS011;33733;52.456;13.620;2022-07-01T05:48:07;21.10;;;14.88;;
47966;SDS011;33733;52.456;13.620;2022-07-01T05:50:33;19.67;;;13.10;;
47966;SDS011;33733;52.456;13.620;2022-07-01T05:53:00;24.13;;;17.27;;
47966;SDS011;33733;52.456;13.620;2022-07-01T05:55:27;23.77;;;17.35;;
47966;SDS011;33733;52.456;13.620;2022-07-01T05:57:54;23.90;;;14.57;;
47966;SDS011;33733;52.456;13.620;2022-07-01T06:00:20;21.13;;;15.80;;
47966;SDS011;33733;52.456;13.620;2022-07-01T06:02:47;17.45;;;12.75;;
47966;SDS011;33733;52.456;13.620;2022-07-01T06:05:13;20.15;;;12.82;;
47966;SDS011;33733;52.456;13.620;2022-07-01T06:07:40;21.70;;;15.95;;
47966;SDS011;33733;52.456;13.620;2022-07-01T06:10:07;21.98;;;16.17;;
47966;SDS011;33733;52.456;13.620;2022-07-01T06:12:36;19.15;;;14.32;;
47966;SDS011;33733;52.456;13.620;2022-07-01T06:15:08;21.92;;;13.57;;
47966;SDS011;33733;52.456;13.620;2022-07-01T06:17:36;21.27;;;15.07;;
47966;SDS011;33733;52.456;13.620;2022-07-01T06:20:05;20.40;;;13.32;;
47966;SDS011;33733;52.456;13.620;2022-07-01T06:22:32;20.00;;;11.52;;
47966;SDS011;33733;52.456;13.620;2022-07-01T06:24:59;19.98;;;13.93;;
47966;SDS011;33733;52.456;13.620;2022-07-01T06:27:26;17.15;;;12.60;;
47966;SDS011;33733;52.456;13.620;2022-07-01T06:29:53;19.20;;;12.77;;
47966;SDS011;33733;52.456;13.620;2022-07-01T06:32:19;21.58;;;12.38;;
47966;SDS011;33733;52.456;13.620;2022-07-01T06:34:46;18.30;;;13.50;;
47966;SDS011;33733;52.456;13.620;2022-07-01T06:37:14;19.58;;;14.60;;
47966;SDS011;33733;52.456;13.620;2022-07-01T06:39:41;20.55;;;14.77;;
47966;SDS011;33733;52.456;13.620;2022-07-01T06:42:07;18.73;;;13.40;;
47966;SDS011;33733;52.456;13.620;2022-07-01T06:44:37;19.92;;;13.70;;
47966;SDS011;33733;52.456;13.620;2022-07-01T06:47:04;17.50;;;12.27;;
47966;SDS011;33733;52.456;13.620;2022-07-01T06:49:31;16.80;;;11.15;;
47966;SDS011;33733;52.456;13.620;2022-07-01T06:51:58;17.45;;;12.80;;
47966;SDS011;33733;52.456;13.620;2022-07-01T06:54:24;18.83;;;13.77;;
47966;SDS011;33733;52.456;13.620;2022-07-01T06:56:51;17.05;;;12.45;;
47966;SDS011;33733;52.456;13.620;2022-07-01T06:59:18;20.20;;;13.75;;
47966;SDS011;33733;52.456;13.620;2022-07-01T07:01:44;18.55;;;14.10;;
47966;SDS011;33733;52.456;13.620;2022-07-01T07:04:11;20.00;;;13.75;;
47966;SDS011;33733;52.456;13.620;2022-07-01T07:06:37;18.35;;;13.70;;
47966;SDS011;33733;52.456;13.620;2022-07-01T07:09:04;17.08;;;12.05;;
47966;SDS011;33733;52.456;13.620;2022-07-01T07:11:30;19.58;;;13.48;;
47966;SDS011;33733;52.456;13.620;2022-07-01T07:13:57;18.25;;;13.98;;
47966;SDS011;33733;52.456;13.620;2022-07-01T07:16:23;18.35;;;14.15;;
47966;SDS011;33733;52.456;13.620;2022-07-01T07:18:51;18.83;;;13.35;;
47966;SDS011;33733;52.456;13.620;2022-07-01T07:21:17;18.75;;;11.95;;
47966;SDS011;33733;52.456;13.620;2022-07-01T07:23:44;20.83;;;14.43;;
47966;SDS011;33733;52.456;13.620;2022-07-01T07:26:10;21.65;;;14.82;;
47966;SDS011;33733;52.456;13.620;2022-07-01T07:28:37;18.73;;;12.25;;
47966;SDS011;33733;52.456;13.620;2022-07-01T07:31:04;19.83;;;11.63;;
47966;SDS011;33733;52.456;13.620;2022-07-01T07:33:30;19.10;;;13.98;;
47966;SDS011;33733;52.456;13.620;2022-07-01T07:35:57;19.30;;;14.43;;
47966;SDS011;33733;52.456;13.620;2022-07-01T07:38:24;18.15;;;11.32;;
47966;SDS011;33733;52.456;13.620;2022-07-01T07:40:50;20.85;;;13.18;;
47966;SDS011;33733;52.456;13.620;2022-07-01T07:43:17;20.42;;;15.27;;
47966;SDS011;33733;52.456;13.620;2022-07-01T07:45:44;20.10;;;11.85;;
47966;SDS011;33733;52.456;13.620;2022-07-01T07:48:10;17.58;;;11.82;;
47966;SDS011;33733;52.456;13.620;2022-07-01T07:50:37;21.13;;;15.60;;
47966;SDS011;33733;52.456;13.620;2022-07-01T07:53:03;21.10;;;13.75;;
47966;SDS011;33733;52.456;13.620;2022-07-01T07:55:33;18.33;;;11.63;;
47966;SDS011;33733;52.456;13.620;2022-07-01T07:57:59;18.77;;;14.20;;
47966;SDS011;33733;52.456;13.620;2022-07-01T08:00:26;20.23;;;12.75;;
47966;SDS011;33733;52.456;13.620;2022-07-01T08:02:55;20.70;;;12.98;;
47966;SDS011;33733;52.456;13.620;2022-07-01T08:05:22;15.77;;;10.52;;
47966;SDS011;33733;52.456;13.620;2022-07-01T08:07:49;20.30;;;12.07;;
47966;SDS011;33733;52.456;13.620;2022-07-01T08:10:16;19.58;;;11.70;;
47966;SDS011;33733;52.456;13.620;2022-07-01T08:12:43;21.80;;;15.88;;
47966;SDS011;33733;52.456;13.620;2022-07-01T08:15:10;32.45;;;12.60;;
47966;SDS011;33733;52.456;13.620;2022-07-01T08:17:36;22.40;;;14.05;;
47966;SDS011;33733;52.456;13.620;2022-07-01T08:20:03;24.35;;;13.60;;
47966;SDS011;33733;52.456;13.620;2022-07-01T08:22:30;29.27;;;14.35;;
47966;SDS011;33733;52.456;13.620;2022-07-01T08:24:57;16.90;;;11.15;;
47966;SDS011;33733;52.456;13.620;2022-07-01T08:27:24;14.95;;;9.70;;
47966;SDS011;33733;52.456;13.620;2022-07-01T08:29:50;18.63;;;13.20;;
47966;SDS011;33733;52.456;13.620;2022-07-01T08:32:17;19.75;;;12.98;;
47966;SDS011;33733;52.456;13.620;2022-07-01T08:34:44;16.27;;;9.93;;
47966;SDS011;33733;52.456;13.620;2022-07-01T08:37:11;17.50;;;13.57;;
47966;SDS011;33733;52.456;13.620;2022-07-01T08:39:37;18.80;;;13.43;;
47966;SDS011;33733;52.456;13.620;2022-07-01T08:42:04;18.88;;;12.68;;
47966;SDS011;33733;52.456;13.620;2022-07-01T08:44:33;17.13;;;10.40;;
47966;SDS011;33733;52.456;13.620;2022-07-01T08:47:01;17.58;;;12.88;;
47966;SDS011;33733;52.456;13.620;2022-07-01T08:49:28;17.05;;;10.43;;
47966;SDS011;33733;52.456;13.620;2022-07-01T08:51:55;15.20;;;10.35;;
47966;SDS011;33733;52.456;13.620;2022-07-01T08:54:21;20.60;;;14.00;;
47966;SDS011;33733;52.456;13.620;2022-07-01T08:56:48;16.42;;;12.35;;
47966;SDS011;33733;52.456;13.620;2022-07-01T08:59:22;17.63;;;10.50;;
47966;SDS011;33733;52.456;13.620;2022-07-01T09:04:26;22.50;;;12.68;;
47966;SDS011;33733;52.456;13.620;2022-07-01T09:07:00;16.67;;;11.15;;
47966;SDS011;33733;52.456;13.620;2022-07-01T09:09:34;15.00;;;10.77;;
47966;SDS011;33733;52.456;13.620;2022-07-01T09:12:08;14.57;;;8.75;;
47966;SDS011;33733;52.456;13.620;2022-07-01T09:14:41;16.33;;;10.07;;
47966;SDS011;33733;52.456;13.620;2022-07-01T09:17:09;16.27;;;8.73;;
47966;SDS011;33733;52.456;13.620;2022-07-01T09:19:48;15.57;;;9.70;;
47966;SDS011;33733;52.456;13.620;2022-07-01T09:22:15;15.70;;;10.10;;
47966;SDS011;33733;52.456;13.620;2022-07-01T09:24:43;12.55;;;9.13;;
47966;SDS011;33733;52.456;13.620;2022-07-01T09:27:11;17.35;;;9.55;;
47966;SDS011;33733;52.456;13.620;2022-07-01T09:29:50;12.63;;;7.40;;
47966;SDS011;33733;52.456;13.620;2022-07-01T09:32:18;12.02;;;8.13;;
47966;SDS011;33733;52.456;13.620;2022-07-01T09:34:47;13.70;;;7.70;;
47966;SDS011;33733;52.456;13.620;2022-07-01T09:37:15;14.80;;;7.57;;
47966;SDS011;33733;52.456;13.620;2022-07-01T09:39:49;14.55;;;8.18;;
47966;SDS011;33733;52.456;13.620;2022-07-01T09:42:18;13.45;;;9.40;;
47966;SDS011;33733;52.456;13.620;2022-07-01T09:44:58;16.25;;;10.32;;
47966;SDS011;33733;52.456;13.620;2022-07-01T09:47:32;13.05;;;7.10;;
47966;SDS011;33733;52.456;13.620;2022-07-01T09:50:01;10.35;;;5.03;;
47966;SDS011;33733;52.456;13.620;2022-07-01T09:52:28;7.22;;;2.47;;
47966;SDS011;33733;52.456;13.620;2022-07-01T09:55:02;7.70;;;3.28;;
47966;SDS011;33733;52.456;13.620;2022-07-01T09:57:32;6.05;;;1.67;;
47966;SDS011;33733;52.456;13.620;2022-07-01T09:59:59;6.10;;;2.78;;
47966;SDS011;33733;52.456;13.620;2022-07-01T10:02:30;7.18;;;2.97;;
47966;SDS011;33733;52.456;13.620;2022-07-01T10:05:07;7.82;;;2.75;;
47966;SDS011;33733;52.456;13.620;2022-07-01T10:13:21;5.93;;;1.75;;
47966;SDS011;33733;52.456;13.620;2022-07-01T10:15:50;3.30;;;1.10;;
47966;SDS011;33733;52.456;13.620;2022-07-01T10:18:26;9.90;;;2.10;;
47966;SDS011;33733;52.456;13.620;2022-07-01T10:20:54;4.57;;;1.90;;
47966;SDS011;33733;52.456;13.620;2022-07-01T10:23:23;4.25;;;1.20;;
47966;SDS011;33733;52.456;13.620;2022-07-01T10:25:51;3.80;;;1.98;;
47966;SDS011;33733;52.456;13.620;2022-07-01T10:28:27;5.45;;;0.85;;
47966;SDS011;33733;52.456;13.620;2022-07-01T10:41:33;6.20;;;1.70;;
47966;SDS011;33733;52.456;13.620;2022-07-01T10:44:02;4.50;;;1.75;;
47966;SDS011;33733;52.456;13.620;2022-07-01T10:47:03;2.75;;;0.52;;
47966;SDS011;33733;52.456;13.620;2022-07-01T11:02:36;4.95;;;1.98;;
47966;SDS011;33733;52.456;13.620;2022-07-01T11:05:04;5.22;;;0.95;;
47966;SDS011;33733;52.456;13.620;2022-07-01T11:07:35;2.60;;;0.68;;
47966;SDS011;33733;52.456;13.620;2022-07-01T11:10:04;4.32;;;1.50;;
47966;SDS011;33733;52.456;13.620;2022-07-01T11:12:32;12.40;;;2.15;;
47966;SDS011;33733;52.456;13.620;2022-07-01T11:14:59;5.18;;;1.33;;
47966;SDS011;33733;52.456;13.620;2022-07-01T11:17:28;3.58;;;0.40;;
47966;SDS011;33733;52.456;13.620;2022-07-01T11:19:55;2.85;;;0.68;;
47966;SDS011;33733;52.456;13.620;2022-07-01T11:22:25;2.65;;;0.40;;
47966;SDS011;33733;52.456;13.620;2022-07-01T11:24:53;5.70;;;1.42;;
47966;SDS011;33733;52.456;13.620;2022-07-01T11:27:20;3.33;;;0.77;;
47966;SDS011;33733;52.456;13.620;2022-07-01T11:29:51;3.90;;;1.10;;
47966;SDS011;33733;52.456;13.620;2022-07-01T11:32:25;4.32;;;0.55;;
47966;SDS011;33733;52.456;13.620;2022-07-01T11:34:56;2.90;;;1.27;;
47966;SDS011;33733;52.456;13.620;2022-07-01T11:37:26;1.27;;;0.30;;
47966;SDS011;33733;52.456;13.620;2022-07-01T11:40:13;1.85;;;0.63;;
47966;SDS011;33733;52.456;13.620;2022-07-01T11:42:40;5.45;;;1.13;;
47966;SDS011;33733;52.456;13.620;2022-07-01T11:45:24;2.00;;;0.93;;
47966;SDS011;33733;52.456;13.620;2022-07-01T11:47:54;4.45;;;1.63;;
47966;SDS011;33733;52.456;13.620;2022-07-01T11:50:20;4.47;;;0.57;;
47966;SDS011;33733;52.456;13.620;2022-07-01T11:52:47;1.85;;;0.30;;
47966;SDS011;33733;52.456;13.620;2022-07-01T11:55:18;3.08;;;1.42;;
47966;SDS011;33733;52.456;13.620;2022-07-01T11:58:03;1.10;;;0.30;;
47966;SDS011;33733;52.456;13.620;2022-07-01T12:03:01;2.35;;;0.93;;
47966;SDS011;33733;52.456;13.620;2022-07-01T12:05:28;3.35;;;1.20;;
47966;SDS011;33733;52.456;13.620;2022-07-01T12:08:02;4.05;;;0.38;;
47966;SDS011;33733;52.456;13.620;2022-07-01T12:10:29;2.70;;;1.23;;
47966;SDS011;33733;52.456;13.620;2022-07-01T12:12:56;3.88;;;1.23;;
47966;SDS011;33733;52.456;13.620;2022-07-01T12:15:23;3.33;;;0.68;;
47966;SDS011;33733;52.456;13.620;2022-07-01T12:17:50;2.95;;;0.40;;
47966;SDS011;33733;52.456;13.620;2022-07-01T12:20:30;2.50;;;0.50;;
47966;SDS011;33733;52.456;13.620;2022-07-01T12:23:12;2.67;;;0.40;;
47966;SDS011;33733;52.456;13.620;2022-07-01T12:25:40;3.45;;;1.45;;
47966;SDS011;33733;52.456;13.620;2022-07-01T12:28:46;4.28;;;1.38;;
47966;SDS011;33733;52.456;13.620;2022-07-01T12:31:06;4.90;;;1.42;;
47966;SDS011;33733;52.456;13.620;2022-07-01T12:33:39;3.15;;;0.43;;
47966;SDS011;33733;52.456;13.620;2022-07-01T12:36:06;2.80;;;0.68;;
47966;SDS011;33733;52.456;13.620;2022-07-01T12:38:33;2.60;;;0.75;;
47966;SDS011;33733;52.456;13.620;2022-07-01T12:41:01;4.13;;;1.60;;
47966;SDS011;33733;52.456;13.620;2022-07-01T12:43:29;3.97;;;2.00;;
47966;SDS011;33733;52.456;13.620;2022-07-01T12:45:58;4.07;;;1.95;;
47966;SDS011;33733;52.456;13.620;2022-07-01T12:48:26;4.45;;;2.45;;
47966;SDS011;33733;52.456;13.620;2022-07-01T12:50:56;3.58;;;1.02;;
47966;SDS011;33733;52.456;13.620;2022-07-01T12:53:24;6.10;;;1.10;;
47966;SDS011;33733;52.456;13.620;2022-07-01T12:55:53;4.90;;;2.38;;
47966;SDS011;33733;52.456;13.620;2022-07-01T12:58:23;5.10;;;2.65;;
47966;SDS011;33733;52.456;13.620;2022-07-01T13:00:52;4.95;;;2.00;;
47966;SDS011;33733;52.456;13.620;2022-07-01T13:03:21;5.68;;;3.33;;
47966;SDS011;33733;52.456;13.620;2022-07-01T13:05:49;4.38;;;2.05;;
47966;SDS011;33733;52.456;13.620;2022-07-01T13:08:17;5.35;;;2.80;;
47966;SDS011;33733;52.456;13.620;2022-07-01T13:10:44;4.65;;;1.42;;
47966;SDS011;33733;52.456;13.620;2022-07-01T13:13:12;6.53;;;1.75;;
47966;SDS011;33733;52.456;13.620;2022-07-01T13:15:39;7.13;;;2.85;;
47966;SDS011;33733;52.456;13.620;2022-07-01T13:18:06;5.03;;;2.63;;
47966;SDS011;33733;52.456;13.620;2022-07-01T13:20:33;6.80;;;3.97;;
47966;SDS011;33733;52.456;13.620;2022-07-01T13:22:59;5.78;;;3.17;;
47966;SDS011;33733;52.456;13.620;2022-07-01T13:25:26;6.85;;;2.90;;
47966;SDS011;33733;52.456;13.620;2022-07-01T13:27:53;9.75;;;3.75;;
47966;SDS011;33733;52.456;13.620;2022-07-01T13:30:20;6.55;;;4.25;;
47966;SDS011;33733;52.456;13.620;2022-07-01T13:32:48;6.22;;;3.40;;
47966;SDS011;33733;52.456;13.620;2022-07-01T13:35:18;5.75;;;2.72;;
47966;SDS011;33733;52.456;13.620;2022-07-01T13:37:45;7.50;;;4.05;;
47966;SDS011;33733;52.456;13.620;2022-07-01T13:40:12;7.03;;;2.88;;
47966;SDS011;33733;52.456;13.620;2022-07-01T13:42:39;7.13;;;2.88;;
47966;SDS011;33733;52.456;13.620;2022-07-01T13:45:06;5.30;;;2.13;;
47966;SDS011;33733;52.456;13.620;2022-07-01T13:47:33;6.03;;;1.92;;
47966;SDS011;33733;52.456;13.620;2022-07-01T13:49:59;5.90;;;3.15;;
47966;SDS011;33733;52.456;13.620;2022-07-01T13:52:27;11.95;;;3.10;;
47966;SDS011;33733;52.456;13.620;2022-07-01T13:54:56;6.15;;;2.42;;
47966;SDS011;33733;52.456;13.620;2022-07-01T13:57:23;5.93;;;2.03;;
47966;SDS011;33733;52.456;13.620;2022-07-01T13:59:51;5.70;;;3.40;;
47966;SDS011;33733;52.456;13.620;2022-07-01T14:02:19;9.63;;;4.45;;
47966;SDS011;33733;52.456;13.620;2022-07-01T14:04:46;6.22;;;3.58;;
47966;SDS011;33733;52.456;13.620;2022-07-01T14:07:14;5.50;;;1.88;;
47966;SDS011;33733;52.456;13.620;2022-07-01T14:09:40;8.30;;;2.33;;
47966;SDS011;33733;52.456;13.620;2022-07-01T14:12:09;6.93;;;3.05;;
47966;SDS011;33733;52.456;13.620;2022-07-01T14:14:42;6.65;;;3.03;;
47966;SDS011;33733;52.456;13.620;2022-07-01T14:17:09;6.00;;;3.50;;
47966;SDS011;33733;52.456;13.620;2022-07-01T14:19:36;6.05;;;3.38;;
47966;SDS011;33733;52.456;13.620;2022-07-01T14:22:03;6.15;;;3.03;;
47966;SDS011;33733;52.456;13.620;2022-07-01T14:24:30;5.53;;;3.08;;
47966;SDS011;33733;52.456;13.620;2022-07-01T14:26:56;6.80;;;3.20;;
47966;SDS011;33733;52.456;13.620;2022-07-01T14:29:23;5.57;;;1.33;;
47966;SDS011;33733;52.456;13.620;2022-07-01T14:31:50;7.43;;;2.83;;
47966;SDS011;33733;52.456;13.620;2022-07-01T14:34:16;6.38;;;3.03;;
47966;SDS011;33733;52.456;13.620;2022-07-01T14:36:43;5.55;;;3.03;;
47966;SDS011;33733;52.456;13.620;2022-07-01T14:39:10;5.03;;;2.38;;
47966;SDS011;33733;52.456;13.620;2022-07-01T14:41:36;5.25;;;3.25;;
47966;SDS011;33733;52.456;13.620;2022-07-01T14:44:03;6.13;;;2.83;;
47966;SDS011;33733;52.456;13.620;2022-07-01T14:46:30;4.38;;;1.60;;
47966;SDS011;33733;52.456;13.620;2022-07-01T14:48:56;5.28;;;2.25;;
47966;SDS011;33733;52.456;13.620;2022-07-01T14:51:24;4.70;;;2.10;;
47966;SDS011;33733;52.456;13.620;2022-07-01T14:54:05;5.10;;;2.67;;
47966;SDS011;33733;52.456;13.620;2022-07-01T14:56:40;4.32;;;2.28;;
47966;SDS011;33733;52.456;13.620;2022-07-01T14:59:25;3.13;;;1.08;;
47966;SDS011;33733;52.456;13.620;2022-07-01T15:01:55;5.40;;;2.50;;
47966;SDS011;33733;52.456;13.620;2022-07-01T15:04:33;5.20;;;1.20;;